createdAt,value
2019-02-09T00:00:53.096Z,4.83
2019-02-09T00:03:25.226Z,7.25
2019-02-09T00:05:57.376Z,7.83
2019-02-09T00:08:29.606Z,4.30
2019-02-09T00:11:01.774Z,4.53
2019-02-09T00:13:33.902Z,4.67
2019-02-09T00:16:06.051Z,3.42
2019-02-09T00:18:38.228Z,7.92
2019-02-09T00:21:10.398Z,4.92
2019-02-09T00:23:42.608Z,5.60
2019-02-09T00:26:14.783Z,3.52
2019-02-09T00:28:47.022Z,6.45
2019-02-09T00:31:19.182Z,12.18
2019-02-09T00:33:51.335Z,6.15
2019-02-09T00:36:23.504Z,3.10
2019-02-09T00:38:55.657Z,6.67
2019-02-09T00:41:27.894Z,7.05
2019-02-09T00:44:00.049Z,5.85
2019-02-09T00:46:32.230Z,3.60
2019-02-09T00:49:04.387Z,4.25
2019-02-09T00:51:36.566Z,5.28
2019-02-09T00:54:08.707Z,5.78
2019-02-09T00:56:40.861Z,3.98
2019-02-09T00:59:13.012Z,2.22
2019-02-09T01:01:45.172Z,5.83
2019-02-09T01:04:17.295Z,4.28
2019-02-09T01:06:49.452Z,2.92
2019-02-09T01:09:21.586Z,7.97
2019-02-09T01:11:53.745Z,3.83
2019-02-09T01:14:25.885Z,2.70
2019-02-09T01:16:58.028Z,4.10
2019-02-09T01:19:30.195Z,3.02
2019-02-09T01:22:02.374Z,4.45
2019-02-09T01:24:34.510Z,5.47
2019-02-09T01:27:06.665Z,2.40
2019-02-09T01:29:38.802Z,2.22
2019-02-09T01:32:10.954Z,4.47
2019-02-09T01:34:43.515Z,2.87
2019-02-09T01:37:15.688Z,3.45
2019-02-09T01:39:47.888Z,4.40
2019-02-09T01:42:20.079Z,3.45
2019-02-09T01:44:52.315Z,4.75
2019-02-09T01:47:24.472Z,2.20
2019-02-09T01:49:56.637Z,3.95
2019-02-09T01:52:28.800Z,2.42
2019-02-09T01:55:00.931Z,2.33
2019-02-09T01:57:33.079Z,2.37
2019-02-09T02:00:12.739Z,4.90
2019-02-09T02:02:44.891Z,1.98
2019-02-09T02:05:18.483Z,1.52
2019-02-09T02:07:50.644Z,2.22
2019-02-09T02:10:24.422Z,4.60
2019-02-09T02:12:56.558Z,1.90
2019-02-09T02:15:28.769Z,5.03
2019-02-09T02:18:00.933Z,2.67
2019-02-09T02:20:33.123Z,2.17
2019-02-09T02:23:05.391Z,3.65
2019-02-09T02:25:37.549Z,3.37
2019-02-09T02:28:09.697Z,2.15
2019-02-09T02:30:41.866Z,2.98
2019-02-09T02:33:14.004Z,3.72
2019-02-09T02:35:46.148Z,2.75
2019-02-09T02:38:18.314Z,3.22
2019-02-09T02:40:50.452Z,3.20
2019-02-09T02:43:22.601Z,1.70
2019-02-09T02:45:54.759Z,2.05
2019-02-09T02:48:26.900Z,2.30
2019-02-09T02:50:59.051Z,0.80
2019-02-09T02:53:32.104Z,4.20
2019-02-09T02:56:04.249Z,2.33
2019-02-09T02:58:36.420Z,1.85
2019-02-09T03:01:08.555Z,4.10
2019-02-09T03:03:40.700Z,3.22
2019-02-09T03:06:12.896Z,2.17
2019-02-09T03:08:45.078Z,2.10
2019-02-09T03:11:17.227Z,0.98
2019-02-09T03:13:49.397Z,3.08
2019-02-09T03:16:21.528Z,4.78
2019-02-09T03:18:53.696Z,2.85
2019-02-09T03:21:25.851Z,3.02
2019-02-09T03:23:58.000Z,2.37
2019-02-09T03:26:30.164Z,2.12
2019-02-09T03:29:02.368Z,2.20
2019-02-09T03:31:34.520Z,1.80
2019-02-09T03:34:06.676Z,1.87
2019-02-09T03:36:38.864Z,10.55
2019-02-09T03:39:11.060Z,0.75
2019-02-09T03:41:43.203Z,2.35
2019-02-09T03:44:15.429Z,3.22
2019-02-09T03:46:47.566Z,1.72
2019-02-09T03:49:19.765Z,4.20
2019-02-09T03:51:51.898Z,3.20
2019-02-09T03:54:24.057Z,3.95
2019-02-09T03:56:56.210Z,2.80
2019-02-09T03:59:28.359Z,3.60
2019-02-09T04:02:00.505Z,2.12
2019-02-09T04:04:32.666Z,0.90
2019-02-09T04:07:04.816Z,1.95
2019-02-09T04:09:36.958Z,5.30
2019-02-09T04:12:09.101Z,3.15
2019-02-09T04:14:41.271Z,1.20
2019-02-09T04:17:13.415Z,1.75
2019-02-09T04:19:45.565Z,1.62
2019-02-09T04:22:17.696Z,3.02
2019-02-09T04:24:49.857Z,0.78
2019-02-09T04:27:22.024Z,1.60
2019-02-09T04:29:54.202Z,2.02
2019-02-09T04:32:26.334Z,1.40
2019-02-09T04:34:58.508Z,1.65
2019-02-09T04:37:30.724Z,2.30
2019-02-09T04:40:04.242Z,1.35
2019-02-09T04:42:36.391Z,1.45
2019-02-09T04:45:10.000Z,2.22
2019-02-09T04:47:42.140Z,1.57
2019-02-09T04:50:14.670Z,2.40
2019-02-09T04:52:47.180Z,2.18
2019-02-09T04:55:23.888Z,1.80
2019-02-09T04:57:56.052Z,1.92
2019-02-09T05:00:31.407Z,1.65
2019-02-09T05:03:05.202Z,2.97
2019-02-09T05:05:37.588Z,3.05
2019-02-09T05:08:09.715Z,3.20
2019-02-09T05:10:42.780Z,2.60
2019-02-09T05:13:14.917Z,1.57
2019-02-09T05:15:47.095Z,3.10
2019-02-09T05:18:19.269Z,4.53
2019-02-09T05:20:51.397Z,3.08
2019-02-09T05:23:23.540Z,4.62
2019-02-09T05:25:55.695Z,4.03
2019-02-09T05:28:27.853Z,4.70
2019-02-09T05:31:00.039Z,2.65
2019-02-09T05:33:32.185Z,5.90
2019-02-09T05:36:04.442Z,4.70
2019-02-09T05:38:36.607Z,4.50
2019-02-09T05:41:08.807Z,2.85
2019-02-09T05:43:40.946Z,7.62
2019-02-09T05:46:13.103Z,5.20
2019-02-09T05:48:45.469Z,4.95
2019-02-09T05:51:17.636Z,6.58
2019-02-09T05:53:49.770Z,5.90
2019-02-09T05:56:21.932Z,5.85
2019-02-09T05:58:54.095Z,4.12
2019-02-09T06:01:31.904Z,9.63
2019-02-09T06:04:00.151Z,6.60
2019-02-09T06:06:32.304Z,6.20
2019-02-09T06:09:05.915Z,4.22
2019-02-09T06:11:38.069Z,6.05
2019-02-09T06:14:10.218Z,2.85
2019-02-09T06:16:42.384Z,4.33
2019-02-09T06:19:14.538Z,5.67
2019-02-09T06:21:46.681Z,6.42
2019-02-09T06:24:18.840Z,4.58
2019-02-09T06:26:50.997Z,8.30
2019-02-09T06:29:23.145Z,5.75
2019-02-09T06:31:55.301Z,7.42
2019-02-09T06:34:27.444Z,7.25
2019-02-09T06:36:59.593Z,7.08
2019-02-09T06:39:31.786Z,3.60
2019-02-09T06:42:03.962Z,4.20
2019-02-09T06:44:36.166Z,6.20
2019-02-09T06:47:08.324Z,3.85
2019-02-09T06:49:40.465Z,8.73
2019-02-09T06:52:12.627Z,5.47
2019-02-09T06:54:44.765Z,6.42
2019-02-09T06:57:16.953Z,5.45
2019-02-09T06:59:49.130Z,7.28
2019-02-09T07:02:21.469Z,7.12
2019-02-09T07:04:53.599Z,4.65
2019-02-09T07:07:25.771Z,7.97
2019-02-09T07:09:57.905Z,3.58
2019-02-09T07:12:30.093Z,4.92
2019-02-09T07:15:02.253Z,5.65
2019-02-09T07:17:34.469Z,4.22
2019-02-09T07:20:08.096Z,4.83
2019-02-09T07:22:40.250Z,5.03
2019-02-09T07:25:13.458Z,5.58
2019-02-09T07:27:45.618Z,8.23
2019-02-09T07:30:19.384Z,7.22
2019-02-09T07:32:51.510Z,8.33
2019-02-09T07:35:23.696Z,7.62
2019-02-09T07:37:55.911Z,7.05
2019-02-09T07:40:28.064Z,6.90
2019-02-09T07:43:00.262Z,6.83
2019-02-09T07:45:33.278Z,4.20
2019-02-09T07:48:05.765Z,6.90
2019-02-09T07:50:37.899Z,5.17
2019-02-09T07:53:10.090Z,10.48
2019-02-09T07:55:42.277Z,7.58
2019-02-09T07:58:14.447Z,5.62
2019-02-09T08:00:46.606Z,4.75
2019-02-09T08:03:18.798Z,5.15
2019-02-09T08:05:50.980Z,8.03
2019-02-09T08:08:23.193Z,7.05
2019-02-09T08:10:55.328Z,7.67
2019-02-09T08:13:28.323Z,13.70
2019-02-09T08:16:00.449Z,9.55
2019-02-09T08:18:32.630Z,7.47
2019-02-09T08:21:04.769Z,9.60
2019-02-09T08:23:36.925Z,8.60
2019-02-09T08:26:09.083Z,10.68
2019-02-09T08:28:41.244Z,6.35
2019-02-09T08:31:13.378Z,5.70
2019-02-09T08:33:46.461Z,7.17
2019-02-09T08:36:18.612Z,5.80
2019-02-09T08:38:51.230Z,8.88
2019-02-09T08:41:23.349Z,5.72
2019-02-09T08:43:55.535Z,8.03
2019-02-09T08:46:27.673Z,6.53
2019-02-09T08:48:59.865Z,8.83
2019-02-09T08:51:32.044Z,15.32
2019-02-09T08:54:04.190Z,15.38
2019-02-09T08:56:36.350Z,9.90
2019-02-09T08:59:08.511Z,8.68
2019-02-09T09:01:40.664Z,9.78
2019-02-09T09:04:12.858Z,10.48
2019-02-09T09:06:45.000Z,12.00
2019-02-09T09:09:17.182Z,10.30
2019-02-09T09:11:49.329Z,9.58
2019-02-09T09:14:21.483Z,10.28
2019-02-09T09:16:53.626Z,14.00
2019-02-09T09:19:25.867Z,17.82
2019-02-09T09:21:58.017Z,0.78
2019-02-09T09:24:30.165Z,8.68
2019-02-09T09:27:02.338Z,8.03
2019-02-09T09:29:34.480Z,9.10
2019-02-09T09:32:06.651Z,5.42
2019-02-09T09:34:38.801Z,5.75
2019-02-09T09:37:10.942Z,6.78
2019-02-09T09:39:43.112Z,12.23
2019-02-09T09:42:15.242Z,3.67
2019-02-09T09:44:47.405Z,13.53
2019-02-09T09:47:19.572Z,2.77
2019-02-09T09:49:51.834Z,13.18
2019-02-09T09:52:23.988Z,7.53
2019-02-09T09:54:56.142Z,8.68
2019-02-09T09:57:28.300Z,12.13
2019-02-09T10:00:00.461Z,8.95
2019-02-09T10:02:36.669Z,12.15
2019-02-09T10:05:07.565Z,6.47
2019-02-09T10:07:39.731Z,12.82
2019-02-09T10:10:13.221Z,9.50
2019-02-09T10:12:45.347Z,11.65
2019-02-09T10:15:19.164Z,14.53
2019-02-09T10:17:51.345Z,10.80
2019-02-09T10:20:24.089Z,14.38
2019-02-09T10:22:56.238Z,10.48
2019-02-09T10:25:28.396Z,7.17
2019-02-09T10:28:00.565Z,4.00
2019-02-09T10:30:35.674Z,13.88
2019-02-09T10:33:07.853Z,5.30
2019-02-09T10:35:40.020Z,13.30
2019-02-09T10:38:12.174Z,8.68
2019-02-09T10:40:44.343Z,16.37
2019-02-09T10:43:16.505Z,8.88
2019-02-09T10:45:48.669Z,8.45
2019-02-09T10:48:20.808Z,15.45
2019-02-09T10:50:52.976Z,14.07
2019-02-09T10:53:25.173Z,21.85
2019-02-09T10:55:57.393Z,11.25
2019-02-09T10:58:30.460Z,4.28
2019-02-09T11:01:04.325Z,13.78
2019-02-09T11:03:36.514Z,19.75
2019-02-09T11:06:08.750Z,11.08
2019-02-09T11:08:40.893Z,5.87
2019-02-09T11:11:13.049Z,3.95
2019-02-09T11:13:45.237Z,7.78
2019-02-09T11:16:17.390Z,5.90
2019-02-09T11:18:49.537Z,14.63
2019-02-09T11:21:21.753Z,12.90
2019-02-09T11:23:53.952Z,10.60
2019-02-09T11:26:26.120Z,10.58
2019-02-09T11:28:58.287Z,14.58
2019-02-09T11:31:30.466Z,14.45
2019-02-09T11:34:02.678Z,10.10
2019-02-09T11:36:34.824Z,10.45
2019-02-09T11:39:06.995Z,11.12
2019-02-09T11:41:40.047Z,6.70
2019-02-09T11:44:12.216Z,12.82
2019-02-09T11:46:44.341Z,8.35
2019-02-09T11:49:16.889Z,12.98
2019-02-09T11:51:49.138Z,14.13
2019-02-09T11:54:21.286Z,8.75
2019-02-09T11:56:53.684Z,25.37
2019-02-09T11:59:25.866Z,17.15
2019-02-09T12:01:58.076Z,5.20
2019-02-09T12:04:30.220Z,4.87
2019-02-09T12:07:02.441Z,7.53
2019-02-09T12:09:34.564Z,15.60
2019-02-09T12:12:06.743Z,14.98
2019-02-09T12:14:38.951Z,15.72
2019-02-09T12:17:11.111Z,13.60
2019-02-09T12:19:43.262Z,6.35
2019-02-09T12:22:15.444Z,8.13
2019-02-09T12:24:47.581Z,6.53
2019-02-09T12:27:19.729Z,6.60
2019-02-09T12:29:51.888Z,15.78
2019-02-09T12:32:24.109Z,10.55
2019-02-09T12:34:56.245Z,7.67
2019-02-09T12:37:28.440Z,9.10
2019-02-09T12:40:00.686Z,11.05
2019-02-09T12:42:32.889Z,7.22
2019-02-09T12:45:09.356Z,10.65
2019-02-09T12:47:41.608Z,10.88
2019-02-09T12:50:14.709Z,11.73
2019-02-09T12:52:46.879Z,11.78
2019-02-09T12:55:19.038Z,14.10
2019-02-09T12:57:51.202Z,5.40
2019-02-09T13:00:30.588Z,13.65
2019-02-09T13:03:13.453Z,12.95
2019-02-09T13:05:45.596Z,10.40
2019-02-09T13:08:17.768Z,6.62
2019-02-09T13:10:49.921Z,13.85
2019-02-09T13:13:22.119Z,17.80
2019-02-09T13:15:54.262Z,15.90
2019-02-09T13:18:27.374Z,11.68
2019-02-09T13:20:59.522Z,11.80
2019-02-09T13:23:31.676Z,7.00
2019-02-09T13:26:03.841Z,7.97
2019-02-09T13:28:36.032Z,7.80
2019-02-09T13:31:08.231Z,12.80
2019-02-09T13:33:40.510Z,13.72
2019-02-09T13:36:12.649Z,10.93
2019-02-09T13:38:44.823Z,3.00
2019-02-09T13:41:16.955Z,5.47
2019-02-09T13:43:50.066Z,11.88
2019-02-09T13:46:22.235Z,12.58
2019-02-09T13:48:55.412Z,8.45
2019-02-09T13:51:27.536Z,9.78
2019-02-09T13:53:59.702Z,10.23
2019-02-09T13:56:31.857Z,10.32
2019-02-09T13:59:04.036Z,13.80
2019-02-09T14:01:36.241Z,14.07
2019-02-09T14:04:08.404Z,5.87
2019-02-09T14:06:40.549Z,2.42
2019-02-09T14:09:12.739Z,5.10
2019-02-09T14:11:44.899Z,10.58
2019-02-09T14:14:17.056Z,7.35
2019-02-09T14:16:49.224Z,7.15
2019-02-09T14:19:21.433Z,8.18
2019-02-09T14:21:53.574Z,8.95
2019-02-09T14:24:25.819Z,15.28
2019-02-09T14:26:57.964Z,12.82
2019-02-09T14:29:30.147Z,14.30
2019-02-09T14:32:03.191Z,8.05
2019-02-09T14:34:35.350Z,9.63
2019-02-09T14:37:07.520Z,2.72
2019-02-09T14:39:39.671Z,7.78
2019-02-09T14:42:11.827Z,5.65
2019-02-09T14:44:44.000Z,7.85
2019-02-09T14:47:16.183Z,7.42
2019-02-09T14:49:48.393Z,9.80
2019-02-09T14:52:20.524Z,11.18
2019-02-09T14:54:52.698Z,14.18
2019-02-09T14:57:24.852Z,12.40
2019-02-09T14:59:57.002Z,9.83
2019-02-09T15:02:29.145Z,7.37
2019-02-09T15:05:01.299Z,9.53
2019-02-09T15:07:33.502Z,7.28
2019-02-09T15:10:07.308Z,11.80
2019-02-09T15:12:39.483Z,11.85
2019-02-09T15:15:13.273Z,6.75
2019-02-09T15:17:45.426Z,7.22
2019-02-09T15:20:19.061Z,9.88
2019-02-09T15:22:51.234Z,10.65
2019-02-09T15:25:23.443Z,8.48
2019-02-09T15:27:55.580Z,10.25
2019-02-09T15:30:28.515Z,8.18
2019-02-09T15:33:00.686Z,10.55
2019-02-09T15:35:32.911Z,10.50
2019-02-09T15:38:05.059Z,11.05
2019-02-09T15:40:37.222Z,7.20
2019-02-09T15:43:09.395Z,8.70
2019-02-09T15:45:41.628Z,8.05
2019-02-09T15:48:13.772Z,10.78
2019-02-09T15:50:45.962Z,12.33
2019-02-09T15:53:18.107Z,12.82
2019-02-09T15:55:50.272Z,9.98
2019-02-09T15:58:22.497Z,12.20
2019-02-09T16:00:54.656Z,7.58
2019-02-09T16:03:26.839Z,12.20
2019-02-09T16:05:59.013Z,10.03
2019-02-09T16:08:31.173Z,14.68
2019-02-09T16:11:03.393Z,14.63
2019-02-09T16:13:35.873Z,9.43
2019-02-09T16:16:08.043Z,10.03
2019-02-09T16:18:40.243Z,9.40
2019-02-09T16:21:12.431Z,12.60
2019-02-09T16:23:44.676Z,8.88
2019-02-09T16:26:16.913Z,10.40
2019-02-09T16:28:49.149Z,10.32
2019-02-09T16:31:21.293Z,9.58
2019-02-09T16:33:53.485Z,15.45
2019-02-09T16:36:25.652Z,8.38
2019-02-09T16:38:57.792Z,11.45
2019-02-09T16:41:29.945Z,8.53
2019-02-09T16:44:02.094Z,7.03
2019-02-09T16:46:34.255Z,19.80
2019-02-09T16:49:06.404Z,16.40
2019-02-09T16:51:38.598Z,19.23
2019-02-09T16:54:10.779Z,10.63
2019-02-09T16:56:42.969Z,12.43
2019-02-09T16:59:15.122Z,12.65
2019-02-09T17:01:47.314Z,10.03
2019-02-09T17:04:19.449Z,9.38
2019-02-09T17:06:51.600Z,10.88
2019-02-09T17:09:23.752Z,14.58
2019-02-09T17:11:55.911Z,10.15
2019-02-09T17:14:28.069Z,4.27
2019-02-09T17:17:00.238Z,6.37
2019-02-09T17:19:32.418Z,11.33
2019-02-09T17:22:04.597Z,9.30
2019-02-09T17:24:36.774Z,7.67
2019-02-09T17:27:08.996Z,8.50
2019-02-09T17:29:41.191Z,6.30
2019-02-09T17:32:13.336Z,7.35
2019-02-09T17:34:45.486Z,9.23
2019-02-09T17:37:17.731Z,9.60
2019-02-09T17:39:49.961Z,8.25
2019-02-09T17:42:22.127Z,7.92
2019-02-09T17:44:54.287Z,5.30
2019-02-09T17:47:26.465Z,6.77
2019-02-09T17:49:58.611Z,7.30
2019-02-09T17:52:30.767Z,7.27
2019-02-09T17:55:03.551Z,4.65
2019-02-09T17:57:35.724Z,4.55
2019-02-09T18:00:17.716Z,8.75
2019-02-09T18:02:49.846Z,7.33
2019-02-09T18:05:21.965Z,8.63
2019-02-09T18:07:54.110Z,5.67
2019-02-09T18:10:26.512Z,7.08
2019-02-09T18:12:58.788Z,7.55
2019-02-09T18:15:30.937Z,3.83
2019-02-09T18:18:03.185Z,7.62
2019-02-09T18:20:35.344Z,5.10
2019-02-09T18:23:07.631Z,6.47
2019-02-09T18:25:39.817Z,9.80
2019-02-09T18:28:11.983Z,7.78
2019-02-09T18:30:44.163Z,4.67
2019-02-09T18:33:16.303Z,5.53
2019-02-09T18:35:48.489Z,10.60
2019-02-09T18:38:20.691Z,7.62
2019-02-09T18:40:52.828Z,7.12
2019-02-09T18:54:33.185Z,7.87
2019-02-09T18:57:05.319Z,5.00
2019-02-09T18:59:37.489Z,7.67
2019-02-09T19:02:09.782Z,6.20
2019-02-09T19:04:41.920Z,7.28
2019-02-09T19:07:14.689Z,7.87
2019-02-09T19:09:46.870Z,9.75
2019-02-09T19:12:19.058Z,11.12
2019-02-09T19:14:51.432Z,9.10
2019-02-09T19:17:24.540Z,7.87
2019-02-09T19:19:56.719Z,7.50
2019-02-09T19:28:57.450Z,8.53
2019-02-09T19:31:29.597Z,9.03
2019-02-09T19:34:01.877Z,9.23
2019-02-09T19:36:34.047Z,8.13
2019-02-09T19:39:06.887Z,11.50
2019-02-09T19:41:39.123Z,14.43
2019-02-09T19:44:11.375Z,12.97
2019-02-09T19:46:43.546Z,6.70
2019-02-09T19:49:15.693Z,11.55
2019-02-09T19:51:48.107Z,10.23
2019-02-09T19:54:20.274Z,15.83
2019-02-09T19:56:52.541Z,12.00
2019-02-09T19:59:24.669Z,10.78
2019-02-09T20:01:56.943Z,12.88
2019-02-09T20:04:29.365Z,14.23
2019-02-09T20:07:01.513Z,8.38
2019-02-09T20:09:33.928Z,13.28
2019-02-09T20:12:06.096Z,13.32
2019-02-09T20:14:38.292Z,20.35
2019-02-09T20:17:10.425Z,9.10
2019-02-09T20:19:42.605Z,19.15
2019-02-09T20:22:14.747Z,9.73
2019-02-09T20:24:46.936Z,10.00
2019-02-09T20:27:19.080Z,17.70
2019-02-09T20:29:51.248Z,12.50
2019-02-09T20:32:23.382Z,18.90
2019-02-09T20:34:55.534Z,14.87
2019-02-09T20:37:27.673Z,13.95
2019-02-09T20:39:59.831Z,14.45
2019-02-09T20:42:31.984Z,18.05
2019-02-09T20:45:05.762Z,12.30
2019-02-09T20:47:37.965Z,12.50
2019-02-09T20:50:15.826Z,17.40
2019-02-09T20:52:48.131Z,12.07
2019-02-09T20:55:20.797Z,11.35
2019-02-09T20:57:53.171Z,14.38
2019-02-09T21:00:29.090Z,12.95
2019-02-09T21:03:01.244Z,10.50
2019-02-09T21:05:36.416Z,15.50
2019-02-09T21:08:07.446Z,12.07
2019-02-09T21:10:41.374Z,15.93
2019-02-09T21:13:13.562Z,10.20
2019-02-09T21:15:45.727Z,10.03
2019-02-09T21:18:17.935Z,18.32
2019-02-09T21:20:50.145Z,12.10
2019-02-09T21:23:22.307Z,13.68
2019-02-09T21:25:55.420Z,15.68
2019-02-09T21:28:27.566Z,14.47
2019-02-09T21:30:59.737Z,14.23
2019-02-09T21:33:31.874Z,11.90
2019-02-09T21:36:04.020Z,10.53
2019-02-09T21:38:36.891Z,8.95
2019-02-09T21:41:09.054Z,7.37
2019-02-09T21:43:43.507Z,13.55
2019-02-09T21:46:15.669Z,14.90
2019-02-09T21:48:47.811Z,14.47
2019-02-09T21:51:20.023Z,14.10
2019-02-09T21:53:52.174Z,11.03
2019-02-09T21:56:24.330Z,14.60
2019-02-09T21:58:56.701Z,13.13
2019-02-09T22:01:28.868Z,14.28
2019-02-09T22:04:01.059Z,10.70
2019-02-09T22:06:33.387Z,8.65
2019-02-09T22:09:05.976Z,9.10
2019-02-09T22:11:38.181Z,9.60
2019-02-09T22:14:10.475Z,10.93
2019-02-09T22:16:42.668Z,15.30
2019-02-09T22:19:14.990Z,12.90
2019-02-09T22:21:47.428Z,25.23
2019-02-09T22:24:19.720Z,13.75
2019-02-09T22:26:51.931Z,11.90
2019-02-09T22:29:24.139Z,11.75
2019-02-09T22:31:56.593Z,16.67
2019-02-09T22:34:28.747Z,17.05
2019-02-09T22:37:00.936Z,15.28
2019-02-09T22:39:33.088Z,14.58
2019-02-09T22:42:05.269Z,9.18
2019-02-09T22:44:37.459Z,12.07
2019-02-09T22:47:09.645Z,16.85
2019-02-09T22:49:41.779Z,15.85
2019-02-09T22:52:14.040Z,23.85
2019-02-09T22:54:46.214Z,10.40
2019-02-09T22:57:18.485Z,14.28
2019-02-09T22:59:50.738Z,14.23
2019-02-09T23:02:22.948Z,17.55
2019-02-09T23:04:56.101Z,13.55
2019-02-09T23:07:28.251Z,11.80
2019-02-09T23:10:00.391Z,14.68
2019-02-09T23:12:32.538Z,9.65
2019-02-09T23:15:06.277Z,8.23
2019-02-09T23:17:38.478Z,9.33
2019-02-09T23:20:10.622Z,11.75
2019-02-09T23:22:42.784Z,12.80
2019-02-09T23:25:14.933Z,15.28
2019-02-09T23:27:47.103Z,18.32
2019-02-09T23:30:19.256Z,20.02
2019-02-09T23:32:51.414Z,24.70
2019-02-09T23:35:23.633Z,20.12
2019-02-09T23:37:55.785Z,21.40
2019-02-09T23:40:27.926Z,14.73
2019-02-09T23:43:00.090Z,17.05
2019-02-09T23:45:32.264Z,9.28
2019-02-09T23:48:04.451Z,16.63
2019-02-09T23:50:36.588Z,16.55
2019-02-09T23:53:09.693Z,11.63
2019-02-09T23:55:41.868Z,16.55
2019-02-09T23:58:14.039Z,10.85
